Time;durP1;ratioP1;P1;durP2;ratioP2;P2;SDS_P1;SDS_P2;PMS_P1;PMS_P2;Temp;Humidity;BMP_temperature;BMP_pressure;BME280_temperature;BME280_humidity;BME280_pressure;Samples;Min_cycle;Max_cycle;Signal;HPM_P1;HPM_P2
2020/12/01 00:00:27;;;;;;;140.82;115.88;;;19.70;45.40;;;;;;460854;56;21048;-31
2020/12/01 00:00:58;;;;;;;142.07;117.43;;;19.70;45.50;;;;;;457497;56;20984;-35
2020/12/01 00:01:28;;;;;;;143.93;115.47;;;19.70;45.50;;;;;;476796;56;21006;-36
2020/12/01 00:01:59;;;;;;;141.50;118.35;;;19.70;45.60;;;;;;502861;56;20964;-33
2020/12/01 00:02:30;;;;;;;139.95;116.50;;;19.70;45.40;;;;;;466536;56;20945;-32
2020/12/01 00:03:01;;;;;;;140.77;116.90;;;19.70;45.50;;;;;;477551;56;20981;-33
2020/12/01 00:03:32;;;;;;;137.98;115.25;;;19.70;45.50;;;;;;470120;56;21052;-33
2020/12/01 00:04:03;;;;;;;142.07;117.82;;;19.70;45.50;;;;;;457637;57;21076;-33
2020/12/01 00:04:33;;;;;;;141.02;116.03;;;19.70;45.40;;;;;;473017;56;21020;-32
2020/12/01 00:05:05;;;;;;;139.57;115.97;;;19.70;45.60;;;;;;502937;56;20929;-31
2020/12/01 00:05:36;;;;;;;138.65;117.80;;;19.70;45.50;;;;;;474375;56;20917;-31
2020/12/01 00:06:07;;;;;;;140.25;119.32;;;19.70;45.40;;;;;;482184;56;21005;-27
2020/12/01 00:06:38;;;;;;;140.65;116.35;;;19.70;45.40;;;;;;501056;56;20941;-31
2020/12/01 00:07:09;;;;;;;138.50;117.80;;;19.70;45.50;;;;;;503056;56;20969;-29
2020/12/01 00:07:40;;;;;;;137.82;116.28;;;19.70;45.40;;;;;;477971;56;21048;-30
2020/12/01 00:08:11;;;;;;;134.55;114.57;;;19.70;45.50;;;;;;478025;56;21029;-28
2020/12/01 00:08:44;;;;;;;140.68;117.00;;;19.70;45.50;;;;;;503106;56;20965;-25
2020/12/01 00:09:16;;;;;;;136.30;114.78;;;19.70;45.40;;;;;;477005;56;21478;-26
2020/12/01 00:09:47;;;;;;;138.37;116.37;;;19.70;45.30;;;;;;477609;56;20969;-30
2020/12/01 00:10:19;;;;;;;137.62;116.32;;;19.70;45.30;;;;;;472893;56;21052;-31
2020/12/01 00:10:50;;;;;;;138.15;114.82;;;19.70;45.50;;;;;;464893;56;20993;-42
2020/12/01 00:11:21;;;;;;;136.95;111.32;;;19.70;45.40;;;;;;471637;56;21092;-34
2020/12/01 00:11:52;;;;;;;132.43;113.28;;;19.70;45.40;;;;;;502987;56;21089;-37
2020/12/01 00:12:22;;;;;;;136.95;114.55;;;19.70;45.40;;;;;;457432;60;21514;-36
2020/12/01 00:12:53;;;;;;;140.73;115.10;;;19.70;45.40;;;;;;457481;60;21459;-35
2020/12/01 00:13:24;;;;;;;133.73;113.32;;;19.70;45.40;;;;;;500530;56;21029;-35
2020/12/01 00:13:55;;;;;;;133.40;112.93;;;19.70;45.40;;;;;;477761;56;20980;-33
2020/12/01 00:14:26;;;;;;;136.48;113.53;;;19.70;45.40;;;;;;464006;56;21032;-34
2020/12/01 00:14:57;;;;;;;134.55;113.55;;;19.70;45.40;;;;;;472110;56;21136;-31
2020/12/01 00:15:28;;;;;;;137.73;115.28;;;19.60;45.30;;;;;;457461;60;21531;-32
2020/12/01 00:15:59;;;;;;;134.52;114.15;;;19.70;45.20;;;;;;478308;56;21052;-28
2020/12/01 00:16:31;;;;;;;134.15;112.12;;;19.70;45.30;;;;;;457457;58;21052;-31
2020/12/01 00:17:02;;;;;;;130.70;112.12;;;19.70;45.30;;;;;;467235;56;20953;-29
2020/12/01 00:17:33;;;;;;;137.02;113.03;;;19.70;45.30;;;;;;468221;56;21009;-34
2020/12/01 00:18:04;;;;;;;135.00;111.03;;;19.70;45.30;;;;;;469059;56;20984;-30
2020/12/01 00:18:34;;;;;;;135.10;110.90;;;19.70;45.40;;;;;;478002;56;21463;-33
2020/12/01 00:19:05;;;;;;;132.73;113.47;;;19.70;45.30;;;;;;494257;56;20993;-27
2020/12/01 00:19:39;;;;;;;139.18;113.68;;;19.70;45.30;;;;;;496968;56;21053;-30
2020/12/01 00:20:11;;;;;;;138.57;115.75;;;19.70;45.40;;;;;;457441;60;21089;-37
2020/12/01 00:20:42;;;;;;;134.02;113.37;;;19.70;45.40;;;;;;502863;56;20942;-34
2020/12/01 00:21:19;;;;;;;133.50;110.65;;;19.70;45.30;;;;;;457398;60;20996;-34
2020/12/01 00:21:53;;;;;;;136.00;114.05;;;19.70;45.40;;;;;;463667;56;20956;-34
2020/12/01 00:22:23;;;;;;;137.90;113.60;;;19.70;45.40;;;;;;459648;56;20944;-37
2020/12/01 00:22:55;;;;;;;138.05;115.82;;;19.60;45.30;;;;;;457566;60;20965;-36
2020/12/01 00:23:27;;;;;;;133.65;109.65;;;19.70;45.30;;;;;;503026;56;20997;-35
2020/12/01 00:23:58;;;;;;;130.70;109.53;;;19.70;45.30;;;;;;483769;56;22125;-35
2020/12/01 00:24:29;;;;;;;134.82;113.62;;;19.70;45.40;;;;;;461509;56;21764;-35
2020/12/01 00:25:01;;;;;;;132.05;112.80;;;19.70;45.30;;;;;;463758;56;21831;-36
2020/12/01 00:25:32;;;;;;;134.10;113.25;;;19.70;45.20;;;;;;462033;56;21208;-36
2020/12/01 00:26:03;;;;;;;130.35;112.30;;;19.70;45.20;;;;;;463418;56;20977;-34
2020/12/01 00:26:33;;;;;;;132.60;108.45;;;19.70;45.20;;;;;;464871;56;20973;-35
2020/12/01 00:27:04;;;;;;;130.60;110.55;;;19.70;45.20;;;;;;479640;56;21483;-36
2020/12/01 00:27:36;;;;;;;129.65;109.90;;;19.70;45.20;;;;;;457464;60;21025;-36
2020/12/01 00:28:07;;;;;;;136.85;112.68;;;19.70;45.20;;;;;;483999;56;21013;-31
2020/12/01 00:28:38;;;;;;;135.77;110.80;;;19.70;45.30;;;;;;492687;56;20973;-34
2020/12/01 00:29:09;;;;;;;132.93;112.25;;;19.60;45.30;;;;;;471031;56;20973;-37
2020/12/01 00:29:39;;;;;;;135.90;111.25;;;19.70;45.30;;;;;;461967;56;20976;-35
2020/12/01 00:30:21;;;;;;;130.98;108.70;;;19.70;45.20;;;;;;464943;56;21362;-36
2020/12/01 00:30:52;;;;;;;132.63;110.35;;;19.70;45.30;;;;;;469773;56;21450;-31
2020/12/01 00:31:23;;;;;;;132.35;109.57;;;19.70;45.30;;;;;;457492;60;21412;-27
2020/12/01 00:31:54;;;;;;;129.90;109.15;;;19.70;45.30;;;;;;470851;56;21447;-31
2020/12/01 00:32:25;;;;;;;130.85;111.47;;;19.70;45.30;;;;;;471070;56;21471;-28
2020/12/01 00:32:56;;;;;;;131.18;110.05;;;19.70;45.30;;;;;;502907;56;21112;-28
2020/12/01 00:33:27;;;;;;;131.95;109.72;;;19.70;45.20;;;;;;470953;56;21032;-28
2020/12/01 00:33:58;;;;;;;129.52;108.57;;;19.70;45.20;;;;;;470902;56;21076;-27
2020/12/01 00:34:29;;;;;;;127.62;110.10;;;19.70;45.10;;;;;;464828;56;21066;-30
2020/12/01 00:35:00;;;;;;;131.15;109.35;;;19.60;45.00;;;;;;478543;55;21132;-25
2020/12/01 00:35:31;;;;;;;133.93;111.10;;;19.60;45.10;;;;;;492635;56;20957;-26
2020/12/01 00:36:02;;;;;;;132.35;111.90;;;19.70;45.80;;;;;;479287;56;21045;-31
2020/12/01 00:36:33;;;;;;;134.12;111.00;;;19.70;45.00;;;;;;493356;56;20957;-32
2020/12/01 00:37:04;;;;;;;133.80;112.05;;;19.70;45.10;;;;;;493888;56;21168;-32
2020/12/01 00:37:38;;;;;;;132.18;110.50;;;19.70;45.00;;;;;;477648;56;21354;-32
2020/12/01 00:38:09;;;;;;;131.02;109.25;;;19.60;45.00;;;;;;473375;56;20945;-33
2020/12/01 00:38:41;;;;;;;132.80;108.78;;;19.60;45.10;;;;;;492784;56;21359;-35
2020/12/01 00:39:12;;;;;;;133.30;110.30;;;19.70;45.10;;;;;;490897;56;21294;-33
2020/12/01 00:39:43;;;;;;;129.50;108.25;;;19.60;45.10;;;;;;494425;56;21028;-32
2020/12/01 00:40:14;;;;;;;132.43;109.72;;;19.60;45.10;;;;;;470158;56;21151;-35
2020/12/01 00:40:46;;;;;;;130.85;110.50;;;19.70;45.20;;;;;;457816;60;21065;-34
2020/12/01 00:41:16;;;;;;;130.35;110.57;;;19.60;45.10;;;;;;467369;56;21092;-36
2020/12/01 00:41:51;;;;;;;126.55;108.55;;;19.70;45.10;;;;;;467671;56;20984;-35
2020/12/01 00:42:22;;;;;;;127.70;108.82;;;19.70;45.20;;;;;;469557;56;20953;-35
2020/12/01 00:42:53;;;;;;;129.48;109.18;;;19.60;45.10;;;;;;502817;56;20969;-36
2020/12/01 00:43:24;;;;;;;122.93;104.07;;;19.60;45.00;;;;;;463291;56;22253;-36
2020/12/01 00:43:54;;;;;;;127.78;107.30;;;19.60;44.90;;;;;;469154;56;21057;-36
2020/12/01 00:44:25;;;;;;;125.75;105.12;;;19.70;45.00;;;;;;503128;56;21069;-36
2020/12/01 00:44:56;;;;;;;125.72;105.85;;;19.60;44.90;;;;;;470739;56;20993;-35
2020/12/01 00:45:27;;;;;;;128.70;108.95;;;19.70;45.30;;;;;;492538;56;20989;-37
2020/12/01 00:45:59;;;;;;;129.05;109.68;;;19.60;45.00;;;;;;457421;60;22266;-36
2020/12/01 00:46:30;;;;;;;131.25;110.18;;;19.60;45.10;;;;;;475447;56;20993;-37
2020/12/01 00:47:01;;;;;;;126.32;106.18;;;19.60;45.10;;;;;;493928;56;20952;-32
2020/12/01 00:47:32;;;;;;;129.43;108.22;;;19.70;45.20;;;;;;470737;56;21044;-34
2020/12/01 00:48:03;;;;;;;132.30;110.80;;;19.60;45.00;;;;;;470697;56;21004;-35
2020/12/01 00:48:34;;;;;;;129.07;108.55;;;19.70;45.10;;;;;;470833;56;21036;-34
2020/12/01 00:49:05;;;;;;;128.25;107.57;;;19.60;45.10;;;;;;502141;56;21044;-30
2020/12/01 00:49:36;;;;;;;127.22;105.12;;;19.60;45.00;;;;;;495340;56;21001;-37
2020/12/01 00:50:14;;;;;;;127.00;107.40;;;19.60;45.00;;;;;;472503;56;20984;-35
2020/12/01 00:50:45;;;;;;;124.62;106.45;;;19.60;45.10;;;;;;460810;56;21008;-36
2020/12/01 00:51:16;;;;;;;128.45;106.32;;;19.70;45.10;;;;;;457545;57;21084;-36
2020/12/01 00:51:49;;;;;;;127.90;105.00;;;19.60;45.00;;;;;;472475;56;21971;-34
2020/12/01 00:52:20;;;;;;;125.20;102.75;;;19.70;44.60;;;;;;457432;60;20960;-35
2020/12/01 00:52:52;;;;;;;130.75;107.97;;;19.70;45.10;;;;;;471158;56;21577;-32
2020/12/01 00:53:23;;;;;;;127.43;106.70;;;19.60;45.00;;;;;;457595;60;21049;-35
2020/12/01 00:53:53;;;;;;;121.50;102.78;;;19.70;45.00;;;;;;502791;56;22052;-36
2020/12/01 00:54:24;;;;;;;124.55;105.07;;;19.70;45.00;;;;;;482608;56;21056;-35
2020/12/01 00:54:55;;;;;;;123.93;104.22;;;19.60;45.00;;;;;;477274;56;20953;-34
2020/12/01 00:55:26;;;;;;;125.12;105.85;;;19.70;45.00;;;;;;484066;56;20929;-34
2020/12/01 00:55:57;;;;;;;132.68;108.37;;;19.60;45.00;;;;;;477347;56;21427;-29
2020/12/01 00:56:31;;;;;;;124.93;103.22;;;19.60;45.00;;;;;;477884;56;21025;-33
2020/12/01 00:57:01;;;;;;;126.28;105.65;;;19.60;44.90;;;;;;457522;57;21121;-33
2020/12/01 00:57:32;;;;;;;127.15;104.07;;;19.60;44.70;;;;;;458219;56;21068;-31
2020/12/01 00:58:04;;;;;;;125.70;105.65;;;19.60;45.00;;;;;;479946;56;21499;-30
2020/12/01 00:58:35;;;;;;;124.25;103.80;;;19.60;44.90;;;;;;503010;56;21033;-35
2020/12/01 00:59:06;;;;;;;127.70;105.32;;;19.60;44.90;;;;;;472687;56;21004;-35
2020/12/01 00:59:37;;;;;;;122.97;102.20;;;19.60;44.90;;;;;;457632;60;21092;-35
2020/12/01 01:00:13;;;;;;;122.53;104.03;;;19.60;44.90;;;;;;480777;56;21029;-38
2020/12/01 01:00:45;;;;;;;128.23;105.12;;;19.60;44.80;;;;;;476422;56;20993;-29
2020/12/01 01:01:16;;;;;;;126.05;105.68;;;19.60;44.70;;;;;;500160;56;21464;-36
2020/12/01 01:01:47;;;;;;;124.93;106.05;;;19.60;44.80;;;;;;457518;60;21088;-33
2020/12/01 01:02:18;;;;;;;126.10;105.18;;;19.60;44.80;;;;;;473533;56;21052;-32
2020/12/01 01:02:49;;;;;;;125.05;106.07;;;19.60;44.90;;;;;;463824;56;20945;-29
2020/12/01 01:03:21;;;;;;;124.80;104.25;;;19.60;44.90;;;;;;476173;56;20945;-33
2020/12/01 01:03:52;;;;;;;123.35;104.28;;;19.60;44.90;;;;;;457628;60;21040;-33
2020/12/01 01:04:23;;;;;;;124.35;105.82;;;19.60;44.80;;;;;;457612;60;21103;-38
2020/12/01 01:04:54;;;;;;;126.68;105.80;;;19.60;44.90;;;;;;496796;56;21354;-34
2020/12/01 01:05:25;;;;;;;124.35;105.63;;;19.60;44.90;;;;;;461588;56;20953;-35
2020/12/01 01:05:56;;;;;;;126.95;106.05;;;19.60;44.80;;;;;;483318;56;20977;-36
2020/12/01 01:06:27;;;;;;;121.82;102.68;;;19.60;44.80;;;;;;502961;56;21488;-37
2020/12/01 01:06:58;;;;;;;124.03;102.07;;;19.60;44.80;;;;;;460656;56;20969;-36
2020/12/01 01:07:29;;;;;;;120.20;98.45;;;19.60;44.90;;;;;;461520;56;20989;-36
2020/12/01 01:08:00;;;;;;;118.30;98.95;;;19.60;45.00;;;;;;463772;56;21009;-36
2020/12/01 01:08:31;;;;;;;118.35;96.60;;;19.70;44.80;;;;;;464994;56;21057;-31
2020/12/01 01:09:02;;;;;;;123.57;102.72;;;19.60;44.70;;;;;;460902;56;21021;-35
2020/12/01 01:09:33;;;;;;;120.18;103.18;;;19.60;44.70;;;;;;457424;60;20953;-35
2020/12/01 01:10:04;;;;;;;125.05;105.37;;;19.60;45.30;;;;;;461170;56;20949;-37
2020/12/01 01:10:35;;;;;;;120.75;104.10;;;19.60;44.80;;;;;;502757;56;20997;-36
2020/12/01 01:11:08;;;;;;;124.32;104.25;;;19.60;44.70;;;;;;483790;56;21040;-35
2020/12/01 01:11:40;;;;;;;121.53;102.07;;;19.60;44.70;;;;;;467500;56;21159;-34
2020/12/01 01:12:11;;;;;;;120.18;102.85;;;19.60;44.80;;;;;;470850;56;20968;-28
2020/12/01 01:12:42;;;;;;;115.40;101.32;;;19.60;44.70;;;;;;471494;56;20988;-29
2020/12/01 01:13:13;;;;;;;120.60;103.50;;;19.60;44.80;;;;;;457416;60;20985;-28
2020/12/01 01:13:44;;;;;;;121.30;102.72;;;19.60;44.80;;;;;;457492;60;20980;-32
2020/12/01 01:14:15;;;;;;;121.97;101.70;;;19.60;44.90;;;;;;471431;56;21041;-27
2020/12/01 01:14:46;;;;;;;120.53;101.72;;;19.60;45.40;;;;;;472220;56;21085;-28
2020/12/01 01:15:18;;;;;;;121.45;103.53;;;19.60;44.70;;;;;;473819;56;21053;-27
2020/12/01 01:15:48;;;;;;;124.43;102.97;;;19.60;44.90;;;;;;457468;60;21061;-33
2020/12/01 01:16:22;;;;;;;117.40;101.78;;;19.60;44.80;;;;;;475586;56;20953;-31
2020/12/01 01:16:53;;;;;;;121.20;102.10;;;19.60;44.70;;;;;;471985;56;21005;-32
2020/12/01 01:17:24;;;;;;;123.82;103.30;;;19.60;44.70;;;;;;473732;56;20957;-37
2020/12/01 01:17:55;;;;;;;122.53;99.53;;;19.60;44.80;;;;;;499281;56;21053;-36
2020/12/01 01:18:26;;;;;;;117.60;99.93;;;19.60;44.70;;;;;;468836;56;20981;-36
2020/12/01 01:18:57;;;;;;;119.15;99.80;;;19.60;44.80;;;;;;492364;56;20961;-36
2020/12/01 01:19:28;;;;;;;118.47;97.82;;;19.60;44.90;;;;;;477606;56;21456;-30
2020/12/01 01:19:59;;;;;;;119.62;101.75;;;19.60;44.70;;;;;;502875;56;20984;-28
2020/12/01 01:20:30;;;;;;;121.68;102.38;;;19.60;44.70;;;;;;480740;56;20998;-36
2020/12/01 01:21:01;;;;;;;115.45;95.47;;;19.60;44.80;;;;;;503012;56;21001;-36
2020/12/01 01:21:32;;;;;;;120.32;101.38;;;19.60;44.70;;;;;;482232;56;21001;-37
2020/12/01 01:22:02;;;;;;;119.70;100.53;;;19.60;44.70;;;;;;471871;56;21028;-35
2020/12/01 01:22:33;;;;;;;118.35;99.93;;;19.60;44.80;;;;;;460152;56;21032;-35
2020/12/01 01:23:04;;;;;;;118.45;101.43;;;19.60;44.80;;;;;;462904;56;20985;-36
2020/12/01 01:23:35;;;;;;;117.80;101.07;;;19.60;44.70;;;;;;457401;60;21608;-35
2020/12/01 01:24:06;;;;;;;117.20;99.03;;;19.60;44.70;;;;;;496603;56;20972;-35
2020/12/01 01:24:37;;;;;;;116.45;100.50;;;19.60;44.80;;;;;;474930;56;20973;-37
2020/12/01 01:25:09;;;;;;;120.90;100.97;;;19.60;44.70;;;;;;457446;60;21104;-35
2020/12/01 01:25:40;;;;;;;117.68;100.60;;;19.60;45.20;;;;;;502952;56;21610;-38
2020/12/01 01:26:11;;;;;;;115.10;96.95;;;19.60;44.70;;;;;;457668;57;21016;-31
2020/12/01 01:26:50;;;;;;;117.40;99.18;;;19.60;44.70;;;;;;457775;56;21016;-35
2020/12/01 01:27:21;;;;;;;117.53;98.12;;;19.60;44.70;;;;;;481705;56;21432;-35
2020/12/01 01:27:52;;;;;;;116.55;96.97;;;19.60;44.80;;;;;;458224;56;21475;-36
2020/12/01 01:28:23;;;;;;;116.32;97.37;;;19.60;44.80;;;;;;459881;56;21539;-36
2020/12/01 01:28:54;;;;;;;116.65;100.20;;;19.60;44.70;;;;;;457598;60;21061;-31
2020/12/01 01:29:25;;;;;;;116.70;100.07;;;19.60;44.80;;;;;;502999;56;21025;-36
2020/12/01 01:29:56;;;;;;;117.53;96.93;;;19.60;44.70;;;;;;461033;56;21527;-32
2020/12/01 01:30:26;;;;;;;114.20;97.20;;;19.60;44.60;;;;;;457532;60;21504;-36
2020/12/01 01:30:57;;;;;;;121.75;99.82;;;19.60;44.70;;;;;;465425;56;21443;-36
2020/12/01 01:31:28;;;;;;;116.05;97.18;;;19.60;44.70;;;;;;457477;60;21085;-37
2020/12/01 01:31:59;;;;;;;113.25;97.85;;;19.60;44.70;;;;;;463946;56;21056;-35
2020/12/01 01:32:30;;;;;;;117.30;99.37;;;19.60;44.70;;;;;;493320;56;21028;-36
2020/12/01 01:33:01;;;;;;;113.50;95.60;;;19.60;44.70;;;;;;461967;56;20989;-36
2020/12/01 01:33:32;;;;;;;117.00;97.00;;;19.60;44.50;;;;;;485388;56;21064;-36
2020/12/01 01:34:02;;;;;;;117.07;98.22;;;19.60;44.60;;;;;;461669;56;21104;-35
2020/12/01 01:34:33;;;;;;;113.72;95.75;;;19.60;44.60;;;;;;474186;56;20953;-37
2020/12/01 01:35:04;;;;;;;116.82;98.82;;;19.60;44.60;;;;;;475180;56;20954;-35
2020/12/01 01:35:35;;;;;;;110.22;96.15;;;19.60;44.70;;;;;;462232;56;21472;-32
2020/12/01 01:36:06;;;;;;;115.75;97.40;;;19.60;44.50;;;;;;462473;56;21037;-32
2020/12/01 01:36:40;;;;;;;116.53;97.70;;;19.60;44.60;;;;;;485854;56;20989;-26
2020/12/01 01:37:11;;;;;;;113.60;96.63;;;19.60;44.70;;;;;;487188;56;21416;-33
2020/12/01 01:37:42;;;;;;;115.10;97.85;;;19.60;44.50;;;;;;457439;60;21489;-29
2020/12/01 01:38:12;;;;;;;112.05;94.70;;;19.60;44.50;;;;;;458972;56;21432;-29
2020/12/01 01:38:43;;;;;;;117.53;96.78;;;19.60;44.50;;;;;;457561;60;21024;-36
2020/12/01 01:39:15;;;;;;;115.05;97.53;;;19.60;45.10;;;;;;459338;56;21054;-35
2020/12/01 01:39:46;;;;;;;116.30;97.85;;;19.60;44.60;;;;;;460548;56;20997;-33
2020/12/01 01:40:23;;;;;;;118.00;96.75;;;19.60;45.30;;;;;;465535;56;21427;-36
2020/12/01 01:40:57;;;;;;;113.40;95.93;;;19.60;44.70;;;;;;472107;56;20993;-24
2020/12/01 01:41:33;;;;;;;113.00;96.22;;;19.60;44.60;;;;;;457500;56;21061;-36
2020/12/01 01:42:08;;;;;;;116.55;95.70;;;19.60;44.70;;;;;;457492;60;21028;-35
2020/12/01 01:42:39;;;;;;;112.45;95.38;;;19.60;44.70;;;;;;476384;56;20941;-35
2020/12/01 01:43:11;;;;;;;115.40;95.75;;;19.60;44.50;;;;;;461820;56;21013;-35
2020/12/01 01:43:42;;;;;;;110.12;92.05;;;19.60;44.50;;;;;;485437;56;21037;-32
2020/12/01 01:44:18;;;;;;;113.40;95.15;;;19.60;44.50;;;;;;498991;56;20981;-35
2020/12/01 01:44:49;;;;;;;113.18;95.00;;;19.60;44.40;;;;;;476600;56;20953;-29
2020/12/01 01:45:42;;;;;;;112.12;97.80;;;19.60;44.50;;;;;;467730;56;21061;-28
2020/12/01 01:48:23;;;;;;;112.70;96.00;;;19.60;44.60;;;;;;457481;60;21583;-37
2020/12/01 01:48:54;;;;;;;118.62;96.87;;;19.60;44.30;;;;;;471301;56;20996;-33
2020/12/01 01:49:37;;;;;;;116.55;96.10;;;19.60;44.50;;;;;;457441;60;21049;-35
2020/12/01 01:50:18;;;;;;;111.88;91.03;;;19.60;45.10;;;;;;457501;60;21048;-33
2020/12/01 01:51:06;;;;;;;111.72;93.32;;;19.60;44.60;;;;;;502964;56;20972;-37
2020/12/01 01:51:38;;;;;;;113.47;94.03;;;19.60;44.60;;;;;;459938;56;21082;-34
2020/12/01 01:52:21;;;;;;;116.60;97.07;;;19.60;44.50;;;;;;458784;56;21096;-37
2020/12/01 01:52:53;;;;;;;110.37;91.00;;;19.60;44.40;;;;;;457507;60;20973;-33
2020/12/01 01:53:24;;;;;;;110.57;92.72;;;19.60;44.40;;;;;;461030;56;20961;-36
2020/12/01 01:53:56;;;;;;;115.22;95.38;;;19.60;44.50;;;;;;467407;56;20941;-34
2020/12/01 01:54:27;;;;;;;114.43;95.82;;;19.60;44.60;;;;;;466722;56;20961;-36
2020/12/01 01:55:04;;;;;;;110.93;95.47;;;19.60;44.50;;;;;;482973;56;21021;-35
2020/12/01 01:55:35;;;;;;;113.40;94.70;;;19.60;44.50;;;;;;502824;56;21009;-36
2020/12/01 01:56:10;;;;;;;110.75;92.65;;;19.60;44.50;;;;;;460283;56;21092;-35
2020/12/01 01:56:46;;;;;;;109.78;93.45;;;19.60;44.50;;;;;;459527;56;20941;-33
2020/12/01 01:57:17;;;;;;;109.95;92.53;;;19.60;44.60;;;;;;483802;56;20977;-36
2020/12/01 01:57:52;;;;;;;109.60;90.47;;;19.60;44.50;;;;;;474971;56;21029;-34
2020/12/01 01:58:28;;;;;;;110.57;93.65;;;19.60;44.40;;;;;;469089;56;21029;-36
2020/12/01 01:59:00;;;;;;;111.25;94.35;;;19.60;44.50;;;;;;503060;56;20941;-36
2020/12/01 01:59:32;;;;;;;111.53;94.20;;;19.60;44.40;;;;;;486379;56;21053;-36
2020/12/01 02:00:18;;;;;;;111.78;92.30;;;19.60;44.50;;;;;;461819;56;20989;-36
2020/12/01 02:01:02;;;;;;;108.28;92.10;;;19.60;44.50;;;;;;486300;56;20976;-35
2020/12/01 02:01:33;;;;;;;114.18;93.85;;;19.60;44.30;;;;;;469874;56;21105;-36
2020/12/01 02:02:04;;;;;;;112.45;93.15;;;19.60;44.30;;;;;;466796;56;21581;-33
2020/12/01 02:02:35;;;;;;;109.05;91.32;;;19.60;44.50;;;;;;466112;56;21523;-34
2020/12/01 02:03:06;;;;;;;111.72;93.12;;;19.60;44.40;;;;;;466469;56;21973;-37
2020/12/01 02:04:08;;;;;;;112.72;93.50;;;19.60;45.10;;;;;;471014;56;21406;-36
2020/12/01 02:04:39;;;;;;;109.20;90.32;;;19.60;44.30;;;;;;464225;56;20989;-33
2020/12/01 02:05:09;;;;;;;105.63;88.05;;;19.60;44.50;;;;;;470771;56;21056;-28
2020/12/01 02:05:40;;;;;;;107.78;89.93;;;19.60;44.50;;;;;;494314;56;20985;-30
2020/12/01 02:06:18;;;;;;;107.40;91.47;;;19.60;44.30;;;;;;472117;56;21201;-35
2020/12/01 02:06:54;;;;;;;109.30;89.60;;;19.60;44.30;;;;;;484188;56;21060;-36
2020/12/01 02:07:25;;;;;;;107.82;93.20;;;19.60;44.40;;;;;;481964;56;20993;-35
2020/12/01 02:07:56;;;;;;;108.82;93.10;;;19.60;44.30;;;;;;476189;56;20961;-37
2020/12/01 02:08:28;;;;;;;109.47;92.05;;;19.60;44.40;;;;;;502748;56;20949;-37
2020/12/01 02:09:03;;;;;;;107.22;89.57;;;19.60;44.40;;;;;;497700;56;21029;-36
2020/12/01 02:10:01;;;;;;;108.43;92.10;;;19.60;44.40;;;;;;485169;56;21016;-36
2020/12/01 02:10:32;;;;;;;110.65;92.05;;;19.60;44.30;;;;;;457600;60;21049;-34
2020/12/01 02:11:03;;;;;;;106.25;90.15;;;19.60;44.40;;;;;;502898;56;20989;-36
2020/12/01 02:11:38;;;;;;;108.63;90.55;;;19.60;44.40;;;;;;471740;56;21009;-37
2020/12/01 02:12:12;;;;;;;105.70;87.40;;;19.60;44.30;;;;;;468828;56;21021;-34
2020/12/01 02:12:46;;;;;;;102.60;85.38;;;19.60;44.40;;;;;;457655;60;21092;-36
2020/12/01 02:13:19;;;;;;;109.57;92.53;;;19.60;44.40;;;;;;502927;56;21044;-34
2020/12/01 02:16:27;;;;;;;109.47;90.43;;;19.60;44.30;;;;;;457780;60;20969;-30
2020/12/01 02:17:45;;;;;;;109.93;91.63;;;19.60;44.40;;;;;;479674;56;20952;-36
2020/12/01 02:18:31;;;;;;;104.80;85.78;;;19.60;44.30;;;;;;487316;56;21448;-25
2020/12/01 02:19:04;;;;;;;105.82;86.50;;;19.60;44.30;;;;;;476990;56;20953;-31
2020/12/01 02:19:35;;;;;;;105.15;86.63;;;19.60;44.20;;;;;;478270;56;21045;-27
2020/12/01 02:20:17;;;;;;;103.45;86.45;;;19.60;44.30;;;;;;473830;56;21041;-29
2020/12/01 02:20:48;;;;;;;102.10;86.05;;;19.60;44.40;;;;;;496475;56;20984;-36
2020/12/01 02:21:35;;;;;;;105.95;88.32;;;19.60;44.40;;;;;;474849;56;21092;-37
2020/12/01 02:22:11;;;;;;;109.07;90.10;;;19.60;44.20;;;;;;457455;60;20961;-30
2020/12/01 02:22:48;;;;;;;108.10;89.97;;;19.60;44.30;;;;;;457428;60;21100;-31
2020/12/01 02:23:19;;;;;;;105.18;88.53;;;19.60;44.20;;;;;;493799;56;20956;-32
2020/12/01 02:23:50;;;;;;;105.53;86.55;;;19.60;44.20;;;;;;484610;56;20949;-36
2020/12/01 02:24:23;;;;;;;102.90;86.97;;;19.60;44.30;;;;;;457582;60;21114;-36
2020/12/01 02:24:56;;;;;;;104.43;88.07;;;19.60;44.30;;;;;;459098;56;20961;-36
2020/12/01 02:25:27;;;;;;;104.18;87.18;;;19.60;44.30;;;;;;478968;56;21048;-31
2020/12/01 02:26:01;;;;;;;102.25;87.32;;;19.60;45.00;;;;;;477476;56;21464;-28
2020/12/01 02:26:32;;;;;;;100.70;85.10;;;19.60;44.20;;;;;;460871;56;20953;-35
2020/12/01 02:27:04;;;;;;;104.32;85.68;;;19.60;44.10;;;;;;482882;56;20918;-36
2020/12/01 02:27:35;;;;;;;102.90;87.07;;;19.60;44.20;;;;;;457666;60;21306;-36
2020/12/01 02:28:06;;;;;;;102.65;87.32;;;19.60;44.20;;;;;;458659;56;20989;-36
2020/12/01 02:28:37;;;;;;;105.35;86.78;;;19.60;44.20;;;;;;458066;56;21040;-36
2020/12/01 02:29:12;;;;;;;105.10;87.55;;;19.50;44.20;;;;;;484626;56;21072;-35
2020/12/01 02:29:46;;;;;;;97.95;83.72;;;19.60;44.30;;;;;;490234;56;20925;-29
2020/12/01 02:30:18;;;;;;;99.70;86.37;;;19.60;44.30;;;;;;472846;56;21032;-35
2020/12/01 02:30:48;;;;;;;102.32;86.43;;;19.50;44.20;;;;;;461356;56;21052;-33
2020/12/01 02:31:19;;;;;;;101.43;86.45;;;19.60;44.20;;;;;;461014;56;21044;-34
2020/12/01 02:31:50;;;;;;;101.85;87.32;;;19.60;44.20;;;;;;457453;60;21021;-31
2020/12/01 02:32:26;;;;;;;101.57;85.70;;;19.60;44.20;;;;;;473298;56;21017;-30
2020/12/01 02:32:57;;;;;;;102.28;86.65;;;19.60;44.30;;;;;;489877;56;21346;-33
2020/12/01 02:33:28;;;;;;;98.18;83.95;;;19.60;44.50;;;;;;474616;56;21005;-32
2020/12/01 02:33:59;;;;;;;103.45;86.18;;;19.60;44.50;;;;;;457454;60;20984;-28
2020/12/01 02:34:37;;;;;;;101.07;83.53;;;19.60;44.20;;;;;;478568;56;20985;-31
2020/12/01 02:35:10;;;;;;;102.80;87.10;;;19.60;44.30;;;;;;458023;56;21475;-36
2020/12/01 02:35:41;;;;;;;98.35;82.30;;;19.60;44.30;;;;;;457657;60;20953;-33
2020/12/01 02:36:11;;;;;;;101.07;83.78;;;19.60;44.20;;;;;;466007;56;21025;-30
2020/12/01 02:36:43;;;;;;;97.78;83.47;;;19.60;44.20;;;;;;467542;56;21016;-30
2020/12/01 02:37:19;;;;;;;99.15;84.97;;;19.60;44.10;;;;;;502842;56;21045;-28
2020/12/01 02:37:50;;;;;;;101.97;84.85;;;19.60;44.10;;;;;;457373;57;21001;-27
2020/12/01 02:38:21;;;;;;;100.87;84.25;;;19.60;44.20;;;;;;462614;56;21037;-30
2020/12/01 02:38:52;;;;;;;98.93;84.82;;;19.60;44.10;;;;;;471103;56;20985;-29
2020/12/01 02:39:23;;;;;;;100.47;84.55;;;19.60;44.10;;;;;;472319;56;20980;-32
2020/12/01 02:39:54;;;;;;;97.22;83.72;;;19.60;44.10;;;;;;480099;56;21840;-35
2020/12/01 02:40:25;;;;;;;101.18;85.45;;;19.50;44.00;;;;;;457710;56;21019;-32
2020/12/01 02:40:55;;;;;;;100.62;83.75;;;19.60;44.10;;;;;;467550;56;21120;-32
2020/12/01 02:41:26;;;;;;;99.50;83.85;;;19.60;44.10;;;;;;493563;56;21025;-35
2020/12/01 02:41:59;;;;;;;99.28;84.22;;;19.60;44.10;;;;;;497936;56;20993;-36
2020/12/01 02:42:30;;;;;;;96.72;83.95;;;19.60;44.10;;;;;;476787;56;21037;-27
2020/12/01 02:43:08;;;;;;;99.28;83.37;;;19.60;44.10;;;;;;471568;56;21040;-30
2020/12/01 02:43:39;;;;;;;100.25;83.90;;;19.60;44.10;;;;;;457585;60;21001;-33
2020/12/01 02:44:10;;;;;;;99.50;83.87;;;19.50;44.10;;;;;;457527;60;20981;-36
2020/12/01 02:44:41;;;;;;;98.47;83.03;;;19.60;44.70;;;;;;457588;57;21029;-36
2020/12/01 02:45:12;;;;;;;96.95;82.35;;;19.60;44.10;;;;;;463412;56;21036;-33
2020/12/01 02:45:43;;;;;;;97.65;80.82;;;19.60;44.10;;;;;;457517;60;20957;-36
2020/12/01 02:46:14;;;;;;;94.65;81.07;;;19.60;44.10;;;;;;467195;56;21009;-34
2020/12/01 02:46:45;;;;;;;99.00;83.93;;;19.60;44.20;;;;;;466558;56;20985;-35
2020/12/01 02:47:16;;;;;;;97.68;83.05;;;19.50;44.00;;;;;;492394;56;21025;-35
2020/12/01 02:47:46;;;;;;;96.05;82.12;;;19.60;44.10;;;;;;467147;56;21459;-35
2020/12/01 02:48:18;;;;;;;99.47;84.78;;;19.60;44.20;;;;;;463836;56;21435;-36
2020/12/01 02:48:48;;;;;;;99.50;82.80;;;19.60;44.10;;;;;;466806;56;20993;-36